Time;durP1;ratioP1;P1;durP2;ratioP2;P2;SDS_P1;SDS_P2;PMS_P1;PMS_P2;Temp;Humidity;BMP_temperature;BMP_pressure;BME280_temperature;BME280_humidity;BME280_pressure;Samples;Min_cycle;Max_cycle;Signal;HPM_P1;HPM_P2
2023/05/25 07:01:23;;;;;;;0.25;0.25;;;17.30;99.90;23.30;102634.00;;;;6308724;22;20619;-73
2023/05/25 07:04:06;;;;;;;1.48;1.33;;;18.70;99.90;19.00;102698.00;;;;6281965;22;20164;-73
2023/05/25 07:07:08;;;;;;;5.93;0.90;;;18.30;99.90;20.10;102694.00;;;;6256616;22;20475;-73
2023/05/25 07:10:19;;;;;;;0.10;0.10;;;18.00;99.90;21.50;102669.00;;;;6282189;22;20143;-73
2023/05/25 07:12:47;;;;;;;2.83;0.63;;;17.90;99.90;21.10;102702.00;;;;6256590;22;20180;-73
2023/05/25 07:15:24;;;;;;;0.55;0.55;;;18.50;99.90;23.80;102649.00;;;;6282838;22;20188;-73
2023/05/25 07:18:13;;;;;;;0.75;0.75;;;19.60;99.90;20.70;102689.00;;;;6256575;22;20187;-73
2023/05/25 07:20:42;;;;;;;0.10;0.10;;;19.70;99.90;22.10;102619.00;;;;6281722;22;20168;-73
2023/05/25 07:23:17;;;;;;;0.13;0.13;;;19.00;99.90;22.50;102670.00;;;;6282119;22;20141;-73
2023/05/25 07:26:03;;;;;;;0.98;0.77;;;19.90;99.90;22.40;102663.00;;;;6282112;22;20607;-73
2023/05/25 07:28:35;;;;;;;0.30;0.30;;;19.80;99.90;23.30;102607.00;;;;6255196;22;20171;-74
2023/05/25 07:31:09;;;;;;;3.30;1.35;;;20.30;99.90;20.60;102705.00;;;;6282800;22;20168;-73
2023/05/25 07:33:46;;;;;;;0.35;0.35;;;19.30;99.90;23.10;102663.00;;;;6256276;22;20175;-73
2023/05/25 07:36:23;;;;;;;0.10;0.10;;;19.70;99.90;24.20;102631.00;;;;6257261;22;20148;-73
2023/05/25 07:39:04;;;;;;;1.45;0.63;;;20.50;99.90;20.60;102697.00;;;;6281760;22;20217;-73
2023/05/25 07:41:31;;;;;;;0.10;0.10;;;19.10;99.90;22.90;102680.00;;;;6256343;22;20166;-73
2023/05/25 07:44:03;;;;;;;0.88;0.88;;;19.20;99.90;24.60;102642.00;;;;6255806;22;20607;-73
2023/05/25 07:46:42;;;;;;;0.68;0.47;;;20.70;99.90;22.00;102674.00;;;;6256508;22;20485;-73
2023/05/25 07:49:23;;;;;;;0.60;0.55;;;20.40;99.90;23.60;102648.00;;;;6281965;22;20144;-73
2023/05/25 07:52:12;;;;;;;0.10;0.10;;;21.00;99.90;24.70;102645.00;;;;6282053;22;20872;-74
2023/05/25 07:54:46;;;;;;;3.03;1.20;;;20.90;99.90;21.70;102693.00;;;;6308789;22;20167;-73
2023/05/25 07:57:18;;;;;;;0.15;0.15;;;20.20;99.90;25.30;102624.00;;;;6282057;22;20144;-74
2023/05/25 07:59:54;;;;;;;1.05;0.50;;;21.10;99.90;26.00;102607.00;;;;6250157;22;20180;-72
2023/05/25 08:02:34;;;;;;;0.10;0.10;;;22.10;99.90;24.10;102661.00;;;;6276625;22;20177;-73
2023/05/25 08:05:06;;;;;;;0.45;0.43;;;21.20;99.90;22.20;102692.00;;;;6276349;22;20152;-74
2023/05/25 08:07:46;;;;;;;0.30;0.30;;;21.20;99.90;24.10;102666.00;;;;6250558;22;20153;-74
2023/05/25 08:10:35;;;;;;;0.20;0.20;;;21.00;99.90;25.20;102643.00;;;;6251731;22;20573;-74
2023/05/25 08:13:06;;;;;;;0.77;0.68;;;21.90;99.90;24.10;102640.00;;;;6250878;22;20235;-73
2023/05/25 08:15:58;;;;;;;3.92;1.00;;;22.00;99.90;27.40;102635.00;;;;6250692;22;20167;-71
2023/05/25 08:18:32;;;;;;;1.65;1.05;;;22.70;99.90;28.20;102670.00;;;;6276450;22;20195;-71
2023/05/25 08:21:43;;;;;;;1.10;0.75;;;24.40;99.90;25.40;102730.00;;;;6251075;22;20181;-73
2023/05/25 08:24:18;;;;;;;0.45;0.45;;;23.50;99.90;23.60;102693.00;;;;6251886;22;20576;-73
2023/05/25 08:26:58;;;;;;;1.60;0.75;;;22.30;99.90;25.00;102680.00;;;;6250079;22;20512;-73
2023/05/25 08:29:34;;;;;;;3.55;1.45;;;22.10;99.90;26.10;102655.00;;;;6250855;22;20161;-73
2023/05/25 08:32:09;;;;;;;3.90;1.08;;;22.70;99.90;21.20;102698.00;;;;6275916;22;20164;-73
2023/05/25 08:34:42;;;;;;;7.05;2.92;;;20.30;99.90;20.10;102722.00;;;;6275778;22;20533;-73
2023/05/25 08:37:38;;;;;;;0.10;0.10;;;19.00;99.90;22.20;102696.00;;;;6250527;22;20232;-73
2023/05/25 08:40:20;;;;;;;0.90;0.90;;;19.20;99.90;22.00;102701.00;;;;6276336;22;20140;-74
2023/05/25 08:43:11;;;;;;;1.00;0.28;;;19.70;99.90;23.60;102687.00;;;;6250616;22;20168;-73
2023/05/25 08:45:47;;;;;;;1.75;1.35;;;20.30;99.90;20.70;102739.00;;;;6275831;22;20509;-71
2023/05/25 08:48:15;;;;;;;0.77;0.73;;;19.10;99.90;22.10;102715.00;;;;6250982;22;20243;-73
2023/05/25 08:50:52;;;;;;;0.40;0.40;;;19.30;99.90;23.40;102638.00;;;;6275537;22;20137;-73
2023/05/25 08:53:39;;;;;;;0.20;0.20;;;19.70;99.90;23.20;102711.00;;;;6276304;22;20172;-73
2023/05/25 08:56:52;;;;;;;0.80;0.80;;;20.30;99.90;21.90;102722.00;;;;6276122;22;20177;-73
2023/05/25 08:59:59;;;;;;;1.00;1.00;;;20.00;99.90;21.10;102735.00;;;;6158860;23;20178;-73
2023/05/25 09:02:53;;;;;;;1.35;1.25;;;18.90;99.90;21.90;102713.00;;;;6275652;22;20145;-72
2023/05/25 09:05:30;;;;;;;1.55;0.90;;;19.40;99.90;22.40;102687.00;;;;6250344;22;20153;-72
2023/05/25 09:08:12;;;;;;;0.70;0.70;;;19.90;99.90;21.40;102737.00;;;;6277374;22;20176;-73
2023/05/25 09:10:47;;;;;;;2.28;1.33;;;19.40;99.90;23.40;102710.00;;;;6275943;22;20160;-73
2023/05/25 09:13:16;;;;;;;0.20;0.20;;;19.70;99.90;23.90;102634.00;;;;6249776;22;20265;-73
2023/05/25 09:15:45;;;;;;;1.33;1.02;;;20.50;99.90;24.60;102687.00;;;;6275157;22;20283;-73
2023/05/25 09:18:29;;;;;;;0.20;0.20;;;21.30;99.90;25.50;102668.00;;;;6277097;22;20580;-73
2023/05/25 09:21:13;;;;;;;0.43;0.43;;;22.10;99.90;22.90;102706.00;;;;6250243;22;20149;-73
2023/05/25 09:23:47;;;;;;;0.80;0.80;;;21.20;99.90;23.70;102699.00;;;;6253993;22;20176;-72
2023/05/25 09:26:16;;;;;;;0.22;0.22;;;21.10;99.90;23.80;102709.00;;;;6250527;22;20153;-73
2023/05/25 09:28:58;;;;;;;1.65;1.35;;;20.80;99.90;23.70;102698.00;;;;6275709;22;20157;-72
2023/05/25 09:31:27;;;;;;;0.45;0.45;;;21.20;99.90;26.70;102673.00;;;;6275761;22;20186;-73
2023/05/25 09:34:13;;;;;;;5.00;1.58;;;22.50;99.90;23.30;102690.00;;;;6275633;22;20169;-73
2023/05/25 09:36:51;;;;;;;1.60;1.38;;;21.00;99.90;21.40;102716.00;;;;6275139;22;20314;-73
2023/05/25 09:39:21;;;;;;;1.10;1.00;;;20.10;99.90;23.10;102690.00;;;;6275353;22;20192;-73
2023/05/25 09:41:53;;;;;;;0.47;0.47;;;20.00;99.90;22.90;102704.00;;;;6249923;22;20485;-73
2023/05/25 09:44:19;;;;;;;0.38;0.38;;;19.90;99.90;23.00;102692.00;;;;6275633;22;20188;-73
2023/05/25 09:46:57;;;;;;;3.72;1.70;;;20.40;99.90;22.10;102674.00;;;;6275229;22;20200;-73
2023/05/25 09:49:32;;;;;;;1.08;0.80;;;20.70;99.90;21.70;102714.00;;;;6275126;22;20619;-73
2023/05/25 09:52:23;;;;;;;0.22;0.20;;;19.90;99.90;24.80;102675.00;;;;6275737;22;20161;-73
2023/05/25 09:55:00;;;;;;;1.77;1.63;;;20.80;99.90;22.10;102656.00;;;;6250019;22;20157;-73
2023/05/25 09:58:21;;;;;;;0.88;0.88;;;20.20;99.90;23.80;102713.00;;;;6275103;22;20153;-73
2023/05/25 10:00:54;;;;;;;2.70;1.05;;;20.90;99.90;22.50;102708.00;;;;6275238;22;20186;-73
2023/05/25 10:03:26;;;;;;;0.60;0.57;;;20.10;99.90;21.80;102710.00;;;;6274996;22;20145;-73
2023/05/25 10:06:20;;;;;;;1.73;0.93;;;19.60;99.90;20.70;102741.00;;;;6277054;22;20149;-73
2023/05/25 10:08:57;;;;;;;1.80;0.77;;;19.20;99.90;21.30;102737.00;;;;6275379;22;20137;-73
2023/05/25 10:11:29;;;;;;;0.38;0.38;;;18.90;99.90;21.90;102711.00;;;;6249168;22;20164;-72
2023/05/25 10:14:26;;;;;;;0.43;0.43;;;19.30;99.90;23.50;102698.00;;;;6249729;22;20163;-72
2023/05/25 10:17:17;;;;;;;0.60;0.60;;;20.40;99.90;23.30;102704.00;;;;6249430;22;20181;-72
2023/05/25 10:20:44;;;;;;;0.60;0.60;;;21.00;99.90;23.20;102716.00;;;;6274136;22;20542;-73
2023/05/25 10:33:33;;;;;;;0.55;0.55;;;19.30;99.90;22.10;102715.00;;;;5070113;28;20574;-72
2023/05/25 10:36:05;;;;;;;0.60;0.60;;;19.50;99.90;22.30;102717.00;;;;5032538;28;20553;-72
2023/05/25 10:38:40;;;;;;;3.30;1.23;;;19.90;99.90;20.70;102744.00;;;;5049577;28;20190;-71
2023/05/25 10:41:29;;;;;;;2.55;1.52;;;19.10;99.90;21.10;102744.00;;;;5048931;28;20225;-72
2023/05/25 10:44:07;;;;;;;0.57;0.57;;;18.80;99.90;21.20;102746.00;;;;5059229;28;20277;-72
2023/05/25 10:46:56;;;;;;;0.43;0.43;;;18.90;99.90;21.20;102738.00;;;;5032181;28;20261;-72
2023/05/25 10:49:34;;;;;;;0.10;0.10;;;18.80;99.90;23.00;102721.00;;;;5055017;28;20207;-72
2023/05/25 10:52:12;;;;;;;1.02;0.93;;;19.50;99.90;21.60;102740.00;;;;5061136;28;20203;-71
2023/05/25 10:54:47;;;;;;;1.38;1.27;;;19.60;99.90;21.60;102738.00;;;;5065610;28;20197;-71
2023/05/25 10:57:30;;;;;;;2.00;1.50;;;19.30;99.90;20.90;102752.00;;;;5032570;28;20209;-72
2023/05/25 11:04:36;;;;;;;0.45;0.45;;;19.10;99.90;21.70;102743.00;;;;5048620;28;20559;-71
2023/05/25 11:07:01;;;;;;;0.90;0.43;;;18.60;99.90;21.00;102764.00;;;;5047563;28;20181;-72
2023/05/25 11:09:56;;;;;;;9.50;1.83;;;18.60;99.90;20.80;102765.00;;;;5045332;28;20554;-72
2023/05/25 11:12:28;;;;;;;0.65;0.65;;;18.50;99.90;20.60;102755.00;;;;5048035;28;20242;-72
2023/05/25 11:15:17;;;;;;;2.88;1.50;;;18.40;99.90;20.30;102762.00;;;;5063066;28;20199;-72
2023/05/25 11:18:35;;;;;;;6.50;2.25;;;18.00;99.90;19.70;102789.00;;;;5030000;28;20183;-71
2023/05/25 11:21:29;;;;;;;1.98;0.55;;;17.70;99.90;20.30;102760.00;;;;5040814;28;20301;-72
2023/05/25 11:24:05;;;;;;;0.63;0.50;;;17.90;99.90;20.50;102770.00;;;;5047001;28;20187;-71
2023/05/25 11:26:35;;;;;;;2.22;2.13;;;18.10;99.90;19.60;102787.00;;;;5074732;28;20240;-71
2023/05/25 11:29:34;;;;;;;4.85;1.67;;;17.90;99.90;20.70;102757.00;;;;5031145;28;20185;-71
2023/05/25 11:32:15;;;;;;;0.10;0.10;;;18.00;99.90;21.80;102728.00;;;;5044742;28;20226;-71
2023/05/25 11:34:58;;;;;;;0.30;0.30;;;18.40;99.90;20.70;102755.00;;;;5031881;28;20584;-71
2023/05/25 11:37:55;;;;;;;0.30;0.30;;;18.40;99.90;20.20;102762.00;;;;5031829;28;20740;-72
2023/05/25 11:40:41;;;;;;;0.73;0.40;;;18.20;99.90;22.90;102717.00;;;;5023204;28;20187;-71
2023/05/25 11:43:22;;;;;;;3.88;1.67;;;19.10;99.90;20.90;102746.00;;;;5024958;28;20205;-71
2023/05/25 11:46:47;;;;;;;0.65;0.65;;;18.90;99.90;22.40;102704.00;;;;5017809;28;20189;-71
2023/05/25 11:49:25;;;;;;;1.95;1.85;;;19.10;99.90;20.60;102744.00;;;;5047200;28;20187;-71
2023/05/25 11:51:56;;;;;;;1.30;0.85;;;18.90;99.90;20.80;102749.00;;;;5018116;28;20210;-71
2023/05/25 11:54:30;;;;;;;1.88;1.15;;;18.70;99.90;21.40;102736.00;;;;5015022;28;20198;-72
2023/05/25 11:57:25;;;;;;;3.83;0.98;;;18.90;99.90;21.70;102727.00;;;;5014301;28;20277;-71
2023/05/25 12:00:10;;;;;;;2.72;1.85;;;18.80;99.90;21.90;102711.00;;;;5020329;28;20265;-71
2023/05/25 12:02:47;;;;;;;0.88;0.85;;;19.10;99.90;21.80;102710.00;;;;5032157;28;20229;-71
2023/05/25 12:05:22;;;;;;;0.30;0.30;;;19.40;99.90;21.90;102713.00;;;;5034454;28;20222;-71
2023/05/25 12:08:35;;;;;;;13.45;1.33;;;19.30;99.90;21.10;102730.00;;;;5017848;28;20183;-71
2023/05/25 12:11:09;;;;;;;0.85;0.85;;;19.20;99.90;21.60;102725.00;;;;5017544;28;20590;-71
2023/05/25 12:13:48;;;;;;;0.28;0.28;;;18.80;99.90;21.90;102708.00;;;;5017754;28;20270;-71
2023/05/25 12:16:24;;;;;;;0.20;0.20;;;19.10;99.90;21.80;102721.00;;;;5035319;28;20209;-71
2023/05/25 12:18:53;;;;;;;0.82;0.82;;;19.10;99.90;21.70;102721.00;;;;5034217;28;20217;-71
2023/05/25 12:21:30;;;;;;;3.83;1.50;;;19.00;99.90;21.80;102713.00;;;;5017832;28;20195;-71
2023/05/25 12:24:06;;;;;;;1.63;1.52;;;19.10;99.90;20.50;102748.00;;;;5017568;28;20649;-71
2023/05/25 12:27:05;;;;;;;0.65;0.65;;;18.70;99.90;21.80;102722.00;;;;5014406;28;20302;-72
2023/05/25 12:29:48;;;;;;;0.73;0.70;;;18.80;99.90;21.30;102726.00;;;;5064557;28;20179;-71
2023/05/25 12:32:29;;;;;;;2.17;2.05;;;18.80;99.90;21.70;102704.00;;;;5033450;28;20225;-71
2023/05/25 12:35:05;;;;;;;0.60;0.60;;;19.10;99.90;21.20;102683.00;;;;5034918;28;20640;-72
2023/05/25 12:37:40;;;;;;;2.42;1.00;;;18.90;99.90;20.90;102720.00;;;;5016690;28;20275;-71
2023/05/25 12:40:19;;;;;;;1.65;1.55;;;18.80;99.90;21.80;102719.00;;;;5059726;28;20194;-72
2023/05/25 12:43:11;;;;;;;1.13;0.82;;;18.70;99.90;20.60;102721.00;;;;5013787;28;20183;-71
2023/05/25 12:46:31;;;;;;;0.30;0.30;;;18.60;99.90;21.40;102724.00;;;;5016492;28;20193;-72
2023/05/25 12:49:23;;;;;;;4.95;1.40;;;18.80;99.90;20.80;102725.00;;;;5028244;28;20191;-71
2023/05/25 12:52:03;;;;;;;1.17;0.68;;;18.60;99.90;21.30;102706.00;;;;5034539;28;20205;-71
2023/05/25 12:55:18;;;;;;;0.88;0.88;;;18.80;99.90;21.50;102691.00;;;;5016802;28;20278;-71
2023/05/25 12:57:57;;;;;;;2.00;0.98;;;19.00;99.90;22.20;102668.00;;;;5040981;28;20205;-71
2023/05/25 13:00:43;;;;;;;0.40;0.40;;;19.40;99.90;21.60;102691.00;;;;5034264;28;20671;-71
2023/05/25 13:03:22;;;;;;;2.08;1.55;;;19.30;99.90;20.80;102704.00;;;;5032606;28;20680;-71
2023/05/25 13:06:01;;;;;;;5.55;2.35;;;18.80;99.90;21.40;102705.00;;;;5014801;28;20233;-72
2023/05/25 13:08:53;;;;;;;2.30;0.90;;;19.10;99.90;21.60;102687.00;;;;5024085;28;20653;-71
2023/05/25 13:11:27;;;;;;;1.80;1.67;;;19.00;99.90;21.00;102693.00;;;;5032204;28;20793;-71
2023/05/25 13:14:01;;;;;;;0.95;0.95;;;19.00;99.90;21.80;102684.00;;;;5032962;28;20186;-71
2023/05/25 13:16:41;;;;;;;1.02;0.75;;;19.20;99.90;21.40;102682.00;;;;5032956;28;20191;-71
2023/05/25 13:19:16;;;;;;;3.05;1.52;;;19.20;99.90;21.10;102645.00;;;;5030173;28;20289;-71
2023/05/25 13:21:50;;;;;;;1.00;0.90;;;19.00;99.90;22.70;102655.00;;;;5032741;28;20190;-71
2023/05/25 13:24:27;;;;;;;1.67;1.05;;;19.40;99.90;22.40;102665.00;;;;5020752;28;20538;-72
2023/05/25 13:27:00;;;;;;;0.13;0.13;;;19.60;99.90;22.30;102654.00;;;;5030833;28;20205;-71
2023/05/25 13:29:52;;;;;;;5.10;1.10;;;19.40;99.90;21.10;102689.00;;;;5017152;28;20217;-71
2023/05/25 13:32:33;;;;;;;1.00;0.57;;;19.40;99.90;22.10;102619.00;;;;5015801;28;20301;-71
2023/05/25 13:35:11;;;;;;;0.50;0.50;;;19.60;99.90;21.60;102668.00;;;;5012808;28;20577;-72
2023/05/25 13:37:53;;;;;;;0.77;0.77;;;19.30;99.90;23.00;102628.00;;;;5016762;28;20717;-71
2023/05/25 13:40:44;;;;;;;1.77;1.67;;;19.70;99.90;21.90;102575.00;;;;5033724;28;20178;-71
2023/05/25 13:43:13;;;;;;;2.60;1.63;;;19.60;99.90;21.80;102594.00;;;;5014559;28;20182;-71
2023/05/25 13:46:02;;;;;;;0.35;0.32;;;19.50;99.90;22.70;102635.00;;;;5032305;28;20277;-72
2023/05/25 13:48:51;;;;;;;0.43;0.43;;;19.80;99.90;22.40;102632.00;;;;4995314;28;20260;-71
2023/05/25 13:54:35;;;;;;;1.98;1.70;;;19.70;99.90;21.90;102653.00;;;;5032205;28;20252;-71
2023/05/25 13:57:08;;;;;;;2.05;1.02;;;19.70;99.90;22.10;102599.00;;;;5012762;28;20199;-71
2023/05/25 13:59:49;;;;;;;2.50;0.65;;;19.60;99.90;23.10;102603.00;;;;5020017;28;20319;-72
2023/05/25 14:02:37;;;;;;;0.93;0.68;;;19.80;99.90;22.80;102626.00;;;;5031890;28;20218;-72
2023/05/25 14:05:24;;;;;;;1.40;1.30;;;20.00;99.90;22.30;102630.00;;;;4991613;28;20216;-71
2023/05/25 14:07:50;;;;;;;3.53;1.90;;;20.00;99.90;21.90;102649.00;;;;5005463;28;20657;-72
2023/05/25 14:10:42;;;;;;;0.98;0.98;;;19.80;99.90;21.80;102642.00;;;;5026883;28;20277;-71
2023/05/25 14:13:17;;;;;;;1.23;0.98;;;19.60;99.90;22.80;102641.00;;;;5014910;28;20253;-71
2023/05/25 14:16:06;;;;;;;1.13;1.08;;;19.70;99.90;21.50;102670.00;;;;5015435;28;20186;-72
2023/05/25 14:18:45;;;;;;;2.60;0.93;;;19.70;99.90;21.70;102630.00;;;;5016358;28;20214;-71
2023/05/25 14:21:46;;;;;;;0.68;0.63;;;19.30;99.90;22.10;102642.00;;;;5015656;28;20595;-72
2023/05/25 14:24:50;;;;;;;0.60;0.60;;;19.30;99.90;22.40;102621.00;;;;5031930;28;20197;-71
2023/05/25 14:27:22;;;;;;;1.08;0.75;;;19.50;99.90;22.50;102618.00;;;;5023856;28;20240;-71
2023/05/25 14:30:13;;;;;;;0.45;0.45;;;19.70;99.90;23.10;102608.00;;;;5031943;28;20190;-71
2023/05/25 14:33:06;;;;;;;1.30;0.68;;;20.00;99.90;23.20;102593.00;;;;5013015;28;20306;-71
2023/05/25 14:35:54;;;;;;;1.35;0.65;;;20.20;99.90;23.40;102597.00;;;;5031881;28;20262;-71
2023/05/25 14:38:32;;;;;;;0.98;0.85;;;20.30;99.90;22.10;102635.00;;;;5014847;28;20183;-71
2023/05/25 14:41:26;;;;;;;0.28;0.28;;;20.10;99.90;22.70;102611.00;;;;5031738;28;20194;-72
2023/05/25 14:44:01;;;;;;;2.13;1.77;;;20.10;99.90;22.80;102629.00;;;;5020378;28;20199;-71
2023/05/25 14:47:05;;;;;;;1.02;1.02;;;20.30;99.90;22.40;102642.00;;;;5048077;28;20193;-72
2023/05/25 14:49:56;;;;;;;1.00;0.50;;;20.10;99.90;21.60;102625.00;;;;5031020;28;20199;-71
2023/05/25 14:52:42;;;;;;;2.72;1.42;;;19.60;99.90;21.80;102652.00;;;;5022218;28;20206;-72
2023/05/25 14:55:28;;;;;;;2.63;2.42;;;19.30;99.90;21.90;102652.00;;;;5031176;28;20179;-71
2023/05/25 14:58:17;;;;;;;1.75;1.10;;;19.40;99.90;22.40;102641.00;;;;5064259;28;20206;-71
2023/05/25 15:00:46;;;;;;;1.38;1.27;;;19.60;99.90;21.80;102648.00;;;;5031907;28;20179;-71
2023/05/25 15:03:34;;;;;;;1.63;1.52;;;19.60;99.90;21.80;102622.00;;;;5012786;28;20207;-71
2023/05/25 15:06:10;;;;;;;0.65;0.65;;;19.60;99.90;22.50;102655.00;;;;5031353;28;20237;-72
2023/05/25 15:08:36;;;;;;;2.13;0.90;;;19.60;99.90;22.40;102622.00;;;;5015180;28;20302;-72
2023/05/25 15:11:20;;;;;;;3.15;1.27;;;19.60;99.90;22.30;102612.00;;;;5014694;28;20653;-72
2023/05/25 15:13:56;;;;;;;3.22;1.35;;;19.60;99.90;21.80;102660.00;;;;5014098;28;20214;-71
2023/05/25 15:16:36;;;;;;;1.13;1.02;;;19.60;99.90;21.10;102685.00;;;;5019354;28;20197;-71
2023/05/25 15:19:06;;;;;;;8.30;1.63;;;19.20;99.90;21.20;102683.00;;;;5018452;28;20188;-71
2023/05/25 15:21:38;;;;;;;4.78;1.85;;;19.00;99.90;21.40;102686.00;;;;5036060;28;20199;-71
2023/05/25 15:24:27;;;;;;;1.33;0.90;;;19.10;99.90;21.80;102671.00;;;;5034673;28;20183;-71
2023/05/25 15:26:53;;;;;;;1.40;1.30;;;19.20;99.90;21.20;102676.00;;;;5051550;28;20186;-71
2023/05/25 15:29:33;;;;;;;0.77;0.70;;;19.10;99.90;21.10;102681.00;;;;5035162;28;20213;-71
2023/05/25 15:32:21;;;;;;;3.38;1.95;;;18.90;99.90;20.80;102681.00;;;;5034685;28;20222;-71
2023/05/25 15:35:02;;;;;;;1.25;0.73;;;18.80;99.90;21.80;102676.00;;;;5028502;28;20175;-71
2023/05/25 15:38:06;;;;;;;1.75;1.50;;;19.00;99.90;21.80;102633.00;;;;5018159;28;20226;-71
2023/05/25 15:41:02;;;;;;;0.80;0.55;;;19.40;99.90;21.50;102687.00;;;;5035083;28;20648;-71
2023/05/25 15:43:59;;;;;;;2.45;1.90;;;19.20;99.90;21.00;102701.00;;;;5017990;28;20264;-71
2023/05/25 15:46:34;;;;;;;3.42;1.30;;;19.00;99.90;21.40;102698.00;;;;5035967;28;20183;-71
2023/05/25 15:49:23;;;;;;;0.55;0.55;;;18.90;99.90;22.00;102678.00;;;;5034010;28;20843;-72
2023/05/25 15:52:28;;;;;;;0.93;0.93;;;19.00;99.90;21.50;102633.00;;;;5034441;28;20689;-71
2023/05/25 15:54:57;;;;;;;0.65;0.65;;;18.90;99.90;22.00;102662.00;;;;5022005;28;20192;-71
2023/05/25 15:57:46;;;;;;;6.38;2.00;;;19.10;99.90;20.80;102700.00;;;;5051417;28;20518;-71
2023/05/25 16:00:42;;;;;;;1.42;1.33;;;18.80;99.90;21.30;102689.00;;;;5033892;28;20624;-72
2023/05/25 16:03:19;;;;;;;2.60;2.40;;;18.60;99.90;21.50;102682.00;;;;5027972;28;20202;-72
2023/05/25 16:06:28;;;;;;;0.28;0.28;;;18.70;99.90;22.20;102671.00;;;;5016248;28;20667;-71
2023/05/25 16:09:27;;;;;;;5.90;2.00;;;19.10;99.90;21.80;102650.00;;;;5020162;28;20190;-71
2023/05/25 16:11:58;;;;;;;2.67;2.05;;;19.20;99.90;21.00;102701.00;;;;5021084;28;20214;-71
2023/05/25 16:15:02;;;;;;;4.72;1.73;;;19.00;99.90;21.00;102706.00;;;;5017856;28;20187;-71
2023/05/25 16:17:37;;;;;;;1.75;1.27;;;18.80;99.90;21.40;102656.00;;;;5020494;28;20214;-71
2023/05/25 16:20:12;;;;;;;0.88;0.82;;;18.70;99.90;21.30;102685.00;;;;5014041;28;20303;-71
2023/05/25 16:22:40;;;;;;;0.88;0.75;;;18.80;99.90;20.70;102710.00;;;;5047194;28;20674;-71
2023/05/25 16:25:47;;;;;;;4.50;1.40;;;18.60;99.90;20.00;102723.00;;;;5014120;28;20194;-71
2023/05/25 16:28:20;;;;;;;1.40;0.43;;;18.20;99.90;21.40;102643.00;;;;5032741;28;20194;-71
2023/05/25 16:30:54;;;;;;;1.13;1.02;;;18.50;99.90;21.20;102690.00;;;;5027059;28;20633;-72
2023/05/25 16:33:44;;;;;;;1.95;1.67;;;18.70;99.90;20.90;102701.00;;;;5033020;28;20214;-71
2023/05/25 16:36:18;;;;;;;0.40;0.40;;;18.50;99.90;21.30;102685.00;;;;5034630;28;20543;-71
2023/05/25 16:39:10;;;;;;;1.45;1.17;;;18.60;99.90;20.50;102696.00;;;;5018197;28;20194;-71
2023/05/25 16:41:44;;;;;;;3.53;2.90;;;18.60;99.90;21.20;102697.00;;;;5041555;28;20194;-71
2023/05/25 16:44:20;;;;;;;2.08;1.17;;;18.50;99.90;21.40;102683.00;;;;5033357;28;20280;-72
2023/05/25 16:46:56;;;;;;;1.20;1.08;;;18.60;99.90;21.00;102680.00;;;;5049665;28;20197;-71
2023/05/25 16:49:34;;;;;;;1.97;1.37;;;18.60;99.90;20.70;102634.00;;;;5061077;28;20198;-71
2023/05/25 16:52:11;;;;;;;0.30;0.30;;;18.40;99.90;20.70;102698.00;;;;5033753;28;20198;-71
2023/05/25 16:54:45;;;;;;;2.08;1.05;;;18.30;99.90;21.00;102697.00;;;;5033871;28;20182;-71
2023/05/25 16:57:42;;;;;;;0.43;0.43;;;18.30;99.90;20.50;102652.00;;;;5019607;28;20276;-71
2023/05/25 17:00:11;;;;;;;2.90;1.42;;;18.10;99.90;20.40;102686.00;;;;5013779;28;20182;-71
2023/05/25 17:03:00;;;;;;;0.43;0.43;;;18.10;99.90;20.70;102684.00;;;;5033020;28;20247;-71
2023/05/25 17:05:37;;;;;;;0.70;0.70;;;18.10;99.90;21.40;102680.00;;;;5019028;28;20663;-71
2023/05/25 17:08:36;;;;;;;1.37;0.43;;;18.40;99.90;20.50;102678.00;;;;5033117;28;20276;-72
2023/05/25 17:11:16;;;;;;;1.30;0.83;;;18.30;99.90;20.50;102645.00;;;;5029971;28;20243;-71
2023/05/25 17:14:00;;;;;;;1.20;1.05;;;18.20;99.90;21.50;102682.00;;;;5032898;28;20575;-71
2023/05/25 17:16:37;;;;;;;1.23;1.13;;;18.20;99.90;21.10;102677.00;;;;5029318;28;20189;-71
2023/05/25 17:19:14;;;;;;;2.47;1.20;;;18.30;99.90;20.50;102684.00;;;;5032807;28;20556;-71
2023/05/25 17:21:51;;;;;;;1.67;1.57;;;18.20;99.90;20.80;102678.00;;;;5032794;28;20194;-71
2023/05/25 17:24:20;;;;;;;2.20;1.90;;;18.10;99.90;21.20;102680.00;;;;5019418;28;20186;-71
2023/05/25 17:27:00;;;;;;;1.40;1.30;;;18.20;99.90;20.60;102638.00;;;;5046786;28;20216;-71
2023/05/25 17:29:32;;;;;;;1.23;1.13;;;18.10;99.90;20.40;102647.00;;;;5020107;28;20190;-71
2023/05/25 17:32:03;;;;;;;0.10;0.10;;;17.90;99.90;21.20;102673.00;;;;5027642;28;20218;-71
2023/05/25 17:34:38;;;;;;;0.30;0.30;;;18.10;99.90;21.50;102643.00;;;;5033285;28;20192;-71
2023/05/25 17:37:23;;;;;;;2.00;0.70;;;18.40;99.90;20.50;102701.00;;;;5002592;28;20188;-71
2023/05/25 17:39:55;;;;;;;3.03;0.80;;;18.30;99.90;20.70;102688.00;;;;5042139;28;20697;-71
2023/05/25 17:42:27;;;;;;;1.33;0.87;;;18.10;99.90;20.40;102686.00;;;;5030314;28;20223;-71
2023/05/25 17:45:13;;;;;;;1.70;1.30;;;18.00;99.90;20.60;102691.00;;;;5032455;28;20194;-71
2023/05/25 17:47:53;;;;;;;4.28;0.95;;;18.00;99.90;20.50;102690.00;;;;5051890;28;20218;-71
2023/05/25 17:50:24;;;;;;;1.15;0.70;;;18.00;99.90;20.50;102679.00;;;;5028412;28;20635;-71
2023/05/25 17:53:16;;;;;;;0.45;0.45;;;18.00;99.90;19.80;102650.00;;;;5033333;28;20208;-71
2023/05/25 17:55:58;;;;;;;0.75;0.75;;;17.80;99.90;20.60;102680.00;;;;5033222;28;20274;-71
2023/05/25 17:58:29;;;;;;;0.82;0.82;;;17.90;99.90;20.60;102689.00;;;;5029437;28;20216;-71
2023/05/25 18:01:29;;;;;;;1.25;1.08;;;17.90;99.90;20.90;102688.00;;;;5031857;28;20192;-71
2023/05/25 18:04:32;;;;;;;2.20;1.80;;;18.00;99.90;20.30;102691.00;;;;5025355;28;20198;-71
2023/05/25 18:07:27;;;;;;;1.47;0.60;;;17.80;99.90;20.80;102694.00;;;;5042533;28;20181;-71
2023/05/25 18:09:58;;;;;;;0.20;0.20;;;17.70;99.90;20.90;102690.00;;;;5041903;28;20180;-71
2023/05/25 18:12:33;;;;;;;0.33;0.33;;;17.90;99.90;21.30;102666.00;;;;5026567;28;20689;-71
2023/05/25 18:15:39;;;;;;;0.50;0.50;;;18.20;99.90;20.80;102688.00;;;;5022054;28;20223;-71
2023/05/25 18:18:15;;;;;;;0.33;0.33;;;18.10;99.90;20.90;102674.00;;;;5041398;28;20213;-71
2023/05/25 18:20:49;;;;;;;0.93;0.80;;;18.00;99.90;20.00;102690.00;;;;5005424;28;20189;-71
2023/05/25 18:23:21;;;;;;;5.10;0.50;;;17.70;99.90;20.50;102699.00;;;;5027335;28;20270;-71
2023/05/25 18:25:58;;;;;;;2.30;1.17;;;17.70;99.90;19.90;102697.00;;;;5015898;28;20209;-70
2023/05/25 18:28:44;;;;;;;0.20;0.20;;;17.60;99.90;20.60;102685.00;;;;5015060;28;20189;-71
2023/05/25 18:31:18;;;;;;;1.60;0.80;;;17.60;99.90;20.10;102680.00;;;;5001043;28;20982;-71
2023/05/25 18:33:50;;;;;;;0.47;0.47;;;17.60;99.90;20.50;102671.00;;;;5016042;28;20194;-71
2023/05/25 18:36:38;;;;;;;1.07;0.97;;;17.60;99.90;20.00;102631.00;;;;5031803;28;20178;-72
2023/05/25 18:39:28;;;;;;;0.50;0.50;;;17.60;99.90;20.50;102682.00;;;;5026268;28;20183;-71
2023/05/25 18:42:17;;;;;;;3.23;1.70;;;17.50;99.90;19.60;102696.00;;;;5015323;28;20198;-71
2023/05/25 18:44:55;;;;;;;1.90;1.07;;;17.40;99.90;20.00;102680.00;;;;5023895;28;20238;-71
2023/05/25 18:47:25;;;;;;;0.10;0.10;;;17.40;99.90;20.00;102674.00;;;;5015024;28;20234;-71
2023/05/25 18:50:03;;;;;;;0.30;0.30;;;17.30;99.90;20.20;102685.00;;;;5015546;28;20187;-71
2023/05/25 18:52:34;;;;;;;0.20;0.20;;;17.40;99.90;20.70;102673.00;;;;5032925;28;20602;-71
2023/05/25 18:55:06;;;;;;;0.27;0.27;;;17.60;99.90;20.70;102625.00;;;;5035306;28;20188;-71
2023/05/25 18:57:33;;;;;;;0.17;0.17;;;17.80;99.90;20.50;102677.00;;;;5024118;28;20649;-71
2023/05/25 19:00:08;;;;;;;0.10;0.10;;;17.70;99.90;20.70;102685.00;;;;5028768;28;20197;-71
2023/05/25 19:02:45;;;;;;;0.57;0.57;;;17.80;99.90;20.10;102689.00;;;;5036819;28;20630;-71
2023/05/25 19:05:34;;;;;;;0.63;0.63;;;17.60;99.90;20.20;102682.00;;;;5015975;28;20273;-71
2023/05/25 19:08:21;;;;;;;0.40;0.40;;;17.40;99.90;20.60;102687.00;;;;5035337;28;20708;-71
2023/05/25 19:11:18;;;;;;;0.30;0.30;;;17.50;99.90;20.20;102698.00;;;;5026880;28;20188;-71